sensor_id;sensor_type;location;lat;lon;timestamp;temperature;humidity
16064;DHT22;8136;53.172;8.256;2022-08-19T00:01:56;17.70;99.90
16064;DHT22;8136;53.172;8.256;2022-08-19T00:04:27;17.80;99.90
16064;DHT22;8136;53.172;8.256;2022-08-19T00:06:55;17.90;99.90
16064;DHT22;8136;53.172;8.256;2022-08-19T00:09:23;17.70;99.90
16064;DHT22;8136;53.172;8.256;2022-08-19T00:11:51;17.60;99.90
16064;DHT22;8136;53.172;8.256;2022-08-19T00:14:18;17.50;99.90
16064;DHT22;8136;53.172;8.256;2022-08-19T00:16:46;17.50;99.90
16064;DHT22;8136;53.172;8.256;2022-08-19T00:19:14;17.40;99.90
16064;DHT22;8136;53.172;8.256;2022-08-19T00:21:41;17.50;99.90
16064;DHT22;8136;53.172;8.256;2022-08-19T00:24:11;17.40;99.90
16064;DHT22;8136;53.172;8.256;2022-08-19T00:26:39;17.40;99.90
16064;DHT22;8136;53.172;8.256;2022-08-19T00:29:09;17.50;99.90
16064;DHT22;8136;53.172;8.256;2022-08-19T00:31:36;17.50;99.90
16064;DHT22;8136;53.172;8.256;2022-08-19T00:34:03;17.40;99.90
16064;DHT22;8136;53.172;8.256;2022-08-19T00:36:30;17.40;99.90
16064;DHT22;8136;53.172;8.256;2022-08-19T00:38:57;17.30;99.90
16064;DHT22;8136;53.172;8.256;2022-08-19T00:41:24;17.30;99.90
16064;DHT22;8136;53.172;8.256;2022-08-19T00:44:04;17.30;99.90
16064;DHT22;8136;53.172;8.256;2022-08-19T00:46:31;17.30;99.90
16064;DHT22;8136;53.172;8.256;2022-08-19T00:48:59;17.30;99.90
16064;DHT22;8136;53.172;8.256;2022-08-19T00:51:28;17.30;99.90
16064;DHT22;8136;53.172;8.256;2022-08-19T00:53:59;17.30;99.90
16064;DHT22;8136;53.172;8.256;2022-08-19T00:56:26;17.20;99.90
16064;DHT22;8136;53.172;8.256;2022-08-19T00:58:55;17.20;99.90
16064;DHT22;8136;53.172;8.256;2022-08-19T01:01:24;17.20;99.90
16064;DHT22;8136;53.172;8.256;2022-08-19T01:03:51;17.20;99.90
16064;DHT22;8136;53.172;8.256;2022-08-19T01:06:18;17.20;99.90
16064;DHT22;8136;53.172;8.256;2022-08-19T01:08:45;17.20;99.90
16064;DHT22;8136;53.172;8.256;2022-08-19T01:11:12;17.10;99.90
16064;DHT22;8136;53.172;8.256;2022-08-19T01:13:39;17.10;99.90
16064;DHT22;8136;53.172;8.256;2022-08-19T01:16:09;17.10;99.90
16064;DHT22;8136;53.172;8.256;2022-08-19T01:18:40;17.10;99.90
16064;DHT22;8136;53.172;8.256;2022-08-19T01:21:12;17.10;99.90
16064;DHT22;8136;53.172;8.256;2022-08-19T01:27:05;17.10;99.90
16064;DHT22;8136;53.172;8.256;2022-08-19T01:29:33;17.10;99.90
16064;DHT22;8136;53.172;8.256;2022-08-19T01:32:01;17.00;99.90
16064;DHT22;8136;53.172;8.256;2022-08-19T01:34:28;17.00;99.90
16064;DHT22;8136;53.172;8.256;2022-08-19T01:36:54;17.00;99.90
16064;DHT22;8136;53.172;8.256;2022-08-19T01:39:23;16.90;99.90
16064;DHT22;8136;53.172;8.256;2022-08-19T01:41:51;16.90;99.90
16064;DHT22;8136;53.172;8.256;2022-08-19T01:44:22;16.90;99.90
16064;DHT22;8136;53.172;8.256;2022-08-19T01:46:51;16.90;99.90
16064;DHT22;8136;53.172;8.256;2022-08-19T01:49:20;16.80;99.90
16064;DHT22;8136;53.172;8.256;2022-08-19T01:51:48;16.80;99.90
16064;DHT22;8136;53.172;8.256;2022-08-19T01:54:17;16.80;99.90
16064;DHT22;8136;53.172;8.256;2022-08-19T01:56:44;16.80;99.90
16064;DHT22;8136;53.172;8.256;2022-08-19T01:59:14;16.80;99.90
16064;DHT22;8136;53.172;8.256;2022-08-19T02:01:44;16.80;99.90
16064;DHT22;8136;53.172;8.256;2022-08-19T02:04:11;16.80;99.90
16064;DHT22;8136;53.172;8.256;2022-08-19T02:06:38;16.80;99.90
16064;DHT22;8136;53.172;8.256;2022-08-19T02:09:06;16.70;99.90
16064;DHT22;8136;53.172;8.256;2022-08-19T02:11:34;16.70;99.90
16064;DHT22;8136;53.172;8.256;2022-08-19T02:14:04;16.60;99.90
16064;DHT22;8136;53.172;8.256;2022-08-19T02:16:31;16.60;99.90
16064;DHT22;8136;53.172;8.256;2022-08-19T02:18:59;16.60;99.90
16064;DHT22;8136;53.172;8.256;2022-08-19T02:21:27;16.60;99.90
16064;DHT22;8136;53.172;8.256;2022-08-19T02:23:54;16.50;99.90
16064;DHT22;8136;53.172;8.256;2022-08-19T02:26:22;16.50;99.90
16064;DHT22;8136;53.172;8.256;2022-08-19T02:28:49;16.50;99.90
16064;DHT22;8136;53.172;8.256;2022-08-19T02:31:18;16.40;99.90
16064;DHT22;8136;53.172;8.256;2022-08-19T02:33:46;16.40;99.90
16064;DHT22;8136;53.172;8.256;2022-08-19T02:36:16;16.30;99.90
16064;DHT22;8136;53.172;8.256;2022-08-19T02:38:43;16.30;99.90
16064;DHT22;8136;53.172;8.256;2022-08-19T02:41:12;16.30;99.90
16064;DHT22;8136;53.172;8.256;2022-08-19T02:43:39;16.30;99.90
16064;DHT22;8136;53.172;8.256;2022-08-19T02:46:12;16.30;99.90
16064;DHT22;8136;53.172;8.256;2022-08-19T02:48:40;16.20;99.90
16064;DHT22;8136;53.172;8.256;2022-08-19T02:51:07;16.20;99.90
16064;DHT22;8136;53.172;8.256;2022-08-19T02:53:35;16.20;99.90
16064;DHT22;8136;53.172;8.256;2022-08-19T02:56:06;16.20;99.90
16064;DHT22;8136;53.172;8.256;2022-08-19T02:58:33;16.20;99.90
16064;DHT22;8136;53.172;8.256;2022-08-19T03:01:00;16.20;99.90
16064;DHT22;8136;53.172;8.256;2022-08-19T03:03:27;16.20;99.90
16064;DHT22;8136;53.172;8.256;2022-08-19T03:06:04;16.10;99.90
16064;DHT22;8136;53.172;8.256;2022-08-19T03:08:31;16.20;99.90
16064;DHT22;8136;53.172;8.256;2022-08-19T03:10:59;16.10;99.90
16064;DHT22;8136;53.172;8.256;2022-08-19T03:13:26;16.10;99.90
16064;DHT22;8136;53.172;8.256;2022-08-19T03:15:53;16.10;99.90
16064;DHT22;8136;53.172;8.256;2022-08-19T03:18:20;16.10;99.90
16064;DHT22;8136;53.172;8.256;2022-08-19T03:20:49;16.00;99.90
16064;DHT22;8136;53.172;8.256;2022-08-19T03:23:18;16.00;99.90
16064;DHT22;8136;53.172;8.256;2022-08-19T03:25:47;16.00;99.90
16064;DHT22;8136;53.172;8.256;2022-08-19T03:28:17;15.90;99.90
16064;DHT22;8136;53.172;8.256;2022-08-19T03:30:55;15.90;99.90
16064;DHT22;8136;53.172;8.256;2022-08-19T03:33:23;15.90;99.90
16064;DHT22;8136;53.172;8.256;2022-08-19T03:36:03;15.80;99.90
16064;DHT22;8136;53.172;8.256;2022-08-19T03:38:31;15.80;99.90
16064;DHT22;8136;53.172;8.256;2022-08-19T03:41:02;15.80;99.90
16064;DHT22;8136;53.172;8.256;2022-08-19T03:43:33;15.80;99.90
16064;DHT22;8136;53.172;8.256;2022-08-19T03:46:02;15.90;99.90
16064;DHT22;8136;53.172;8.256;2022-08-19T03:48:30;15.90;99.90
16064;DHT22;8136;53.172;8.256;2022-08-19T03:50:58;15.90;99.90
16064;DHT22;8136;53.172;8.256;2022-08-19T03:53:25;15.80;99.90
16064;DHT22;8136;53.172;8.256;2022-08-19T03:55:53;15.90;99.90
16064;DHT22;8136;53.172;8.256;2022-08-19T03:58:20;15.80;99.90
16064;DHT22;8136;53.172;8.256;2022-08-19T04:00:48;15.80;99.90
16064;DHT22;8136;53.172;8.256;2022-08-19T04:03:15;15.80;99.90
16064;DHT22;8136;53.172;8.256;2022-08-19T04:05:44;15.80;99.90
16064;DHT22;8136;53.172;8.256;2022-08-19T04:08:11;15.80;99.90
16064;DHT22;8136;53.172;8.256;2022-08-19T04:10:38;15.80;99.90
16064;DHT22;8136;53.172;8.256;2022-08-19T04:13:05;15.80;99.90
16064;DHT22;8136;53.172;8.256;2022-08-19T04:15:38;15.70;99.90
16064;DHT22;8136;53.172;8.256;2022-08-19T04:18:08;15.80;99.90
16064;DHT22;8136;53.172;8.256;2022-08-19T04:20:42;15.80;99.90
16064;DHT22;8136;53.172;8.256;2022-08-19T04:23:09;15.80;99.90
16064;DHT22;8136;53.172;8.256;2022-08-19T04:25:38;15.80;99.90
16064;DHT22;8136;53.172;8.256;2022-08-19T04:28:05;15.70;99.90
16064;DHT22;8136;53.172;8.256;2022-08-19T04:30:38;15.80;99.90
16064;DHT22;8136;53.172;8.256;2022-08-19T04:33:05;15.70;99.90
16064;DHT22;8136;53.172;8.256;2022-08-19T04:35:37;15.60;99.90
16064;DHT22;8136;53.172;8.256;2022-08-19T04:38:05;15.60;99.90
16064;DHT22;8136;53.172;8.256;2022-08-19T04:40:32;15.60;99.90
16064;DHT22;8136;53.172;8.256;2022-08-19T04:43:17;15.50;99.90
16064;DHT22;8136;53.172;8.256;2022-08-19T04:45:44;15.50;99.90
16064;DHT22;8136;53.172;8.256;2022-08-19T04:48:11;15.50;99.90
16064;DHT22;8136;53.172;8.256;2022-08-19T04:50:41;15.50;99.90
16064;DHT22;8136;53.172;8.256;2022-08-19T04:53:09;15.50;99.90
16064;DHT22;8136;53.172;8.256;2022-08-19T04:55:39;15.50;99.90
16064;DHT22;8136;53.172;8.256;2022-08-19T04:58:06;15.50;99.90
16064;DHT22;8136;53.172;8.256;2022-08-19T05:00:33;15.60;99.90
16064;DHT22;8136;53.172;8.256;2022-08-19T05:03:00;15.60;99.90
16064;DHT22;8136;53.172;8.256;2022-08-19T05:05:27;15.60;99.90
16064;DHT22;8136;53.172;8.256;2022-08-19T05:07:55;15.60;99.90
16064;DHT22;8136;53.172;8.256;2022-08-19T05:10:22;15.60;99.90
16064;DHT22;8136;53.172;8.256;2022-08-19T05:12:49;15.70;99.90
16064;DHT22;8136;53.172;8.256;2022-08-19T05:15:16;15.70;99.90
16064;DHT22;8136;53.172;8.256;2022-08-19T05:17:44;15.70;99.90
16064;DHT22;8136;53.172;8.256;2022-08-19T05:20:30;15.70;99.90
16064;DHT22;8136;53.172;8.256;2022-08-19T05:23:16;15.70;99.90
16064;DHT22;8136;53.172;8.256;2022-08-19T05:25:43;15.80;99.90
16064;DHT22;8136;53.172;8.256;2022-08-19T05:28:10;15.80;99.90
16064;DHT22;8136;53.172;8.256;2022-08-19T05:30:36;15.90;99.90
16064;DHT22;8136;53.172;8.256;2022-08-19T05:33:03;16.10;99.90
16064;DHT22;8136;53.172;8.256;2022-08-19T05:35:30;16.30;99.90
16064;DHT22;8136;53.172;8.256;2022-08-19T05:37:57;16.40;99.90
16064;DHT22;8136;53.172;8.256;2022-08-19T05:40:25;16.40;99.90
16064;DHT22;8136;53.172;8.256;2022-08-19T05:42:52;16.40;99.90
16064;DHT22;8136;53.172;8.256;2022-08-19T05:45:18;16.40;99.90
16064;DHT22;8136;53.172;8.256;2022-08-19T05:47:46;16.40;99.90
16064;DHT22;8136;53.172;8.256;2022-08-19T05:50:13;16.40;99.90
16064;DHT22;8136;53.172;8.256;2022-08-19T05:52:40;16.40;99.90
16064;DHT22;8136;53.172;8.256;2022-08-19T05:55:07;16.40;99.90
16064;DHT22;8136;53.172;8.256;2022-08-19T05:57:36;16.50;99.90
16064;DHT22;8136;53.172;8.256;2022-08-19T06:00:04;16.50;99.90
16064;DHT22;8136;53.172;8.256;2022-08-19T06:02:34;16.70;99.90
16064;DHT22;8136;53.172;8.256;2022-08-19T06:05:02;16.80;99.90
16064;DHT22;8136;53.172;8.256;2022-08-19T06:07:29;16.90;99.90
16064;DHT22;8136;53.172;8.256;2022-08-19T06:09:56;17.00;99.90
16064;DHT22;8136;53.172;8.256;2022-08-19T06:12:23;17.20;99.90
16064;DHT22;8136;53.172;8.256;2022-08-19T06:14:55;17.30;99.90
16064;DHT22;8136;53.172;8.256;2022-08-19T06:17:22;17.40;99.90
16064;DHT22;8136;53.172;8.256;2022-08-19T06:19:50;17.50;99.90
16064;DHT22;8136;53.172;8.256;2022-08-19T06:22:17;17.50;99.90
16064;DHT22;8136;53.172;8.256;2022-08-19T06:24:44;17.50;99.90
16064;DHT22;8136;53.172;8.256;2022-08-19T06:27:10;17.70;99.90
16064;DHT22;8136;53.172;8.256;2022-08-19T06:29:37;17.80;99.90
16064;DHT22;8136;53.172;8.256;2022-08-19T06:32:06;17.90;99.90
16064;DHT22;8136;53.172;8.256;2022-08-19T06:34:34;18.00;99.90
16064;DHT22;8136;53.172;8.256;2022-08-19T06:37:02;18.10;99.90
16064;DHT22;8136;53.172;8.256;2022-08-19T06:39:32;18.20;99.90
16064;DHT22;8136;53.172;8.256;2022-08-19T06:42:01;18.20;99.90
16064;DHT22;8136;53.172;8.256;2022-08-19T06:44:30;18.30;99.90
16064;DHT22;8136;53.172;8.256;2022-08-19T06:47:01;18.40;99.90
16064;DHT22;8136;53.172;8.256;2022-08-19T06:49:29;18.50;99.90
16064;DHT22;8136;53.172;8.256;2022-08-19T06:51:58;18.50;99.90
16064;DHT22;8136;53.172;8.256;2022-08-19T06:54:26;18.70;99.90
16064;DHT22;8136;53.172;8.256;2022-08-19T06:56:54;18.70;99.90
16064;DHT22;8136;53.172;8.256;2022-08-19T06:59:22;18.80;99.90
16064;DHT22;8136;53.172;8.256;2022-08-19T07:01:54;18.80;99.90
16064;DHT22;8136;53.172;8.256;2022-08-19T07:04:22;18.90;99.90
16064;DHT22;8136;53.172;8.256;2022-08-19T07:06:57;19.00;99.90
16064;DHT22;8136;53.172;8.256;2022-08-19T07:09:26;19.00;99.90
16064;DHT22;8136;53.172;8.256;2022-08-19T07:11:53;19.10;99.90
16064;DHT22;8136;53.172;8.256;2022-08-19T07:14:22;19.10;99.90
16064;DHT22;8136;53.172;8.256;2022-08-19T07:16:52;19.20;99.90
16064;DHT22;8136;53.172;8.256;2022-08-19T07:19:20;19.30;99.90
16064;DHT22;8136;53.172;8.256;2022-08-19T07:21:48;19.40;99.90
16064;DHT22;8136;53.172;8.256;2022-08-19T07:24:17;19.50;99.90
16064;DHT22;8136;53.172;8.256;2022-08-19T07:26:44;19.60;99.90
16064;DHT22;8136;53.172;8.256;2022-08-19T07:29:11;19.70;99.90
16064;DHT22;8136;53.172;8.256;2022-08-19T07:31:38;19.70;99.90
16064;DHT22;8136;53.172;8.256;2022-08-19T07:34:07;19.70;99.90
16064;DHT22;8136;53.172;8.256;2022-08-19T07:36:36;19.80;99.90
16064;DHT22;8136;53.172;8.256;2022-08-19T07:39:08;19.90;99.90
16064;DHT22;8136;53.172;8.256;2022-08-19T07:41:36;19.90;99.90
16064;DHT22;8136;53.172;8.256;2022-08-19T07:44:05;20.00;99.90
16064;DHT22;8136;53.172;8.256;2022-08-19T07:46:33;20.00;99.90
16064;DHT22;8136;53.172;8.256;2022-08-19T07:49:01;20.00;99.90
16064;DHT22;8136;53.172;8.256;2022-08-19T07:51:28;20.10;99.90
16064;DHT22;8136;53.172;8.256;2022-08-19T07:53:55;20.20;99.90
16064;DHT22;8136;53.172;8.256;2022-08-19T07:56:22;20.20;99.90
16064;DHT22;8136;53.172;8.256;2022-08-19T07:58:51;20.30;99.90
16064;DHT22;8136;53.172;8.256;2022-08-19T08:01:20;20.40;99.90
16064;DHT22;8136;53.172;8.256;2022-08-19T08:03:48;20.40;99.90
16064;DHT22;8136;53.172;8.256;2022-08-19T08:06:33;20.40;99.90
16064;DHT22;8136;53.172;8.256;2022-08-19T08:09:19;20.40;99.90
16064;DHT22;8136;53.172;8.256;2022-08-19T08:11:51;20.30;99.90
16064;DHT22;8136;53.172;8.256;2022-08-19T08:14:22;20.20;99.90
16064;DHT22;8136;53.172;8.256;2022-08-19T08:16:50;20.30;99.90
16064;DHT22;8136;53.172;8.256;2022-08-19T08:19:19;20.40;99.90
16064;DHT22;8136;53.172;8.256;2022-08-19T08:21:48;20.60;99.90
16064;DHT22;8136;53.172;8.256;2022-08-19T08:24:15;20.70;99.90
16064;DHT22;8136;53.172;8.256;2022-08-19T08:26:42;20.80;99.90
16064;DHT22;8136;53.172;8.256;2022-08-19T08:29:10;21.00;99.90
16064;DHT22;8136;53.172;8.256;2022-08-19T08:31:40;21.00;99.90
16064;DHT22;8136;53.172;8.256;2022-08-19T08:34:08;21.00;99.90
16064;DHT22;8136;53.172;8.256;2022-08-19T08:36:36;20.90;99.90
16064;DHT22;8136;53.172;8.256;2022-08-19T08:39:06;20.80;99.90
16064;DHT22;8136;53.172;8.256;2022-08-19T08:41:39;20.90;99.90
16064;DHT22;8136;53.172;8.256;2022-08-19T08:44:15;21.00;99.90
16064;DHT22;8136;53.172;8.256;2022-08-19T08:46:48;21.00;99.90
16064;DHT22;8136;53.172;8.256;2022-08-19T08:49:29;21.00;99.90
16064;DHT22;8136;53.172;8.256;2022-08-19T08:52:03;21.10;99.90
16064;DHT22;8136;53.172;8.256;2022-08-19T08:54:34;21.20;99.90
16064;DHT22;8136;53.172;8.256;2022-08-19T08:57:04;21.40;99.90
16064;DHT22;8136;53.172;8.256;2022-08-19T08:59:35;21.50;99.90
16064;DHT22;8136;53.172;8.256;2022-08-19T09:02:04;21.70;99.90
16064;DHT22;8136;53.172;8.256;2022-08-19T09:04:31;21.70;99.90
16064;DHT22;8136;53.172;8.256;2022-08-19T09:07:09;21.80;99.90
16064;DHT22;8136;53.172;8.256;2022-08-19T09:09:43;21.80;99.90
16064;DHT22;8136;53.172;8.256;2022-08-19T09:12:19;21.80;99.90
16064;DHT22;8136;53.172;8.256;2022-08-19T09:14:51;21.80;99.90
16064;DHT22;8136;53.172;8.256;2022-08-19T09:17:23;22.00;99.90
16064;DHT22;8136;53.172;8.256;2022-08-19T09:19:58;22.10;99.90
16064;DHT22;8136;53.172;8.256;2022-08-19T09:22:26;22.30;99.90
16064;DHT22;8136;53.172;8.256;2022-08-19T09:24:54;22.30;99.90
16064;DHT22;8136;53.172;8.256;2022-08-19T09:27:22;22.40;99.90
16064;DHT22;8136;53.172;8.256;2022-08-19T09:29:50;22.50;99.90
16064;DHT22;8136;53.172;8.256;2022-08-19T09:32:20;22.60;99.90
16064;DHT22;8136;53.172;8.256;2022-08-19T09:34:47;22.70;99.90
16064;DHT22;8136;53.172;8.256;2022-08-19T09:37:14;22.70;99.90
16064;DHT22;8136;53.172;8.256;2022-08-19T09:39:41;22.70;99.90
16064;DHT22;8136;53.172;8.256;2022-08-19T09:42:08;22.80;99.90
16064;DHT22;8136;53.172;8.256;2022-08-19T09:44:37;22.80;99.90
16064;DHT22;8136;53.172;8.256;2022-08-19T09:47:04;22.70;99.90
16064;DHT22;8136;53.172;8.256;2022-08-19T09:49:33;22.70;99.90
16064;DHT22;8136;53.172;8.256;2022-08-19T09:52:00;22.80;99.90
16064;DHT22;8136;53.172;8.256;2022-08-19T09:54:28;22.90;99.90
16064;DHT22;8136;53.172;8.256;2022-08-19T09:56:55;23.00;99.90
16064;DHT22;8136;53.172;8.256;2022-08-19T09:59:24;23.00;99.90
16064;DHT22;8136;53.172;8.256;2022-08-19T10:01:50;23.00;99.90
16064;DHT22;8136;53.172;8.256;2022-08-19T10:04:17;23.00;99.90
16064;DHT22;8136;53.172;8.256;2022-08-19T10:06:46;23.10;99.90
16064;DHT22;8136;53.172;8.256;2022-08-19T10:09:15;23.20;99.90
16064;DHT22;8136;53.172;8.256;2022-08-19T10:11:44;23.20;99.90
16064;DHT22;8136;53.172;8.256;2022-08-19T10:14:13;23.20;99.90
16064;DHT22;8136;53.172;8.256;2022-08-19T10:16:42;23.20;99.90
16064;DHT22;8136;53.172;8.256;2022-08-19T10:19:09;23.30;99.90
16064;DHT22;8136;53.172;8.256;2022-08-19T10:21:36;23.50;99.90
16064;DHT22;8136;53.172;8.256;2022-08-19T10:24:06;23.60;99.90
16064;DHT22;8136;53.172;8.256;2022-08-19T10:26:36;23.80;99.90
16064;DHT22;8136;53.172;8.256;2022-08-19T10:29:04;24.00;99.90
16064;DHT22;8136;53.172;8.256;2022-08-19T10:31:32;24.00;99.90
16064;DHT22;8136;53.172;8.256;2022-08-19T10:34:00;24.10;99.90
16064;DHT22;8136;53.172;8.256;2022-08-19T10:36:29;24.30;99.90
16064;DHT22;8136;53.172;8.256;2022-08-19T10:38:58;24.30;99.90
16064;DHT22;8136;53.172;8.256;2022-08-19T10:41:30;24.30;99.90
16064;DHT22;8136;53.172;8.256;2022-08-19T10:43:58;24.30;99.90
16064;DHT22;8136;53.172;8.256;2022-08-19T10:46:27;24.30;99.90
16064;DHT22;8136;53.172;8.256;2022-08-19T10:48:58;24.50;99.90
16064;DHT22;8136;53.172;8.256;2022-08-19T10:51:26;24.60;99.90
16064;DHT22;8136;53.172;8.256;2022-08-19T10:54:10;24.80;99.90
16064;DHT22;8136;53.172;8.256;2022-08-19T10:56:38;24.90;99.90
16064;DHT22;8136;53.172;8.256;2022-08-19T10:59:23;25.10;99.90
16064;DHT22;8136;53.172;8.256;2022-08-19T11:01:50;25.30;99.90
16064;DHT22;8136;53.172;8.256;2022-08-19T11:04:18;25.40;99.90
16064;DHT22;8136;53.172;8.256;2022-08-19T11:06:46;25.60;99.90
16064;DHT22;8136;53.172;8.256;2022-08-19T11:09:13;25.70;99.90
16064;DHT22;8136;53.172;8.256;2022-08-19T11:11:42;25.70;99.90
16064;DHT22;8136;53.172;8.256;2022-08-19T11:14:13;25.90;99.90
16064;DHT22;8136;53.172;8.256;2022-08-19T11:16:42;26.10;99.90
16064;DHT22;8136;53.172;8.256;2022-08-19T11:19:10;26.10;99.90
16064;DHT22;8136;53.172;8.256;2022-08-19T11:21:39;26.10;99.90
16064;DHT22;8136;53.172;8.256;2022-08-19T11:24:08;26.00;99.90
16064;DHT22;8136;53.172;8.256;2022-08-19T11:26:37;26.00;99.90
16064;DHT22;8136;53.172;8.256;2022-08-19T11:29:07;26.20;99.90
16064;DHT22;8136;53.172;8.256;2022-08-19T11:31:37;26.30;99.90
16064;DHT22;8136;53.172;8.256;2022-08-19T11:34:06;26.40;99.90
16064;DHT22;8136;53.172;8.256;2022-08-19T11:36:36;26.30;99.90
16064;DHT22;8136;53.172;8.256;2022-08-19T11:39:04;26.40;99.90
16064;DHT22;8136;53.172;8.256;2022-08-19T11:41:31;26.50;99.90
16064;DHT22;8136;53.172;8.256;2022-08-19T11:43:58;26.60;99.90
16064;DHT22;8136;53.172;8.256;2022-08-19T11:46:26;26.70;99.90
16064;DHT22;8136;53.172;8.256;2022-08-19T11:48:54;26.90;99.90
16064;DHT22;8136;53.172;8.256;2022-08-19T11:51:23;26.90;99.90
16064;DHT22;8136;53.172;8.256;2022-08-19T11:53:51;27.00;99.90
16064;DHT22;8136;53.172;8.256;2022-08-19T11:56:19;26.90;99.90
16064;DHT22;8136;53.172;8.256;2022-08-19T11:58:46;27.20;99.90
16064;DHT22;8136;53.172;8.256;2022-08-19T12:01:16;27.30;99.90
16064;DHT22;8136;53.172;8.256;2022-08-19T12:03:47;27.40;99.90
16064;DHT22;8136;53.172;8.256;2022-08-19T12:06:17;27.60;99.90
16064;DHT22;8136;53.172;8.256;2022-08-19T12:08:44;27.60;99.90
16064;DHT22;8136;53.172;8.256;2022-08-19T12:11:13;27.70;99.90
16064;DHT22;8136;53.172;8.256;2022-08-19T12:13:40;27.80;99.90
16064;DHT22;8136;53.172;8.256;2022-08-19T12:16:14;27.90;99.90
16064;DHT22;8136;53.172;8.256;2022-08-19T12:18:42;27.90;99.90
16064;DHT22;8136;53.172;8.256;2022-08-19T12:21:13;28.10;99.90
16064;DHT22;8136;53.172;8.256;2022-08-19T12:23:41;28.20;99.30
16064;DHT22;8136;53.172;8.256;2022-08-19T12:26:09;28.30;99.90
16064;DHT22;8136;53.172;8.256;2022-08-19T12:28:37;28.20;99.60
16064;DHT22;8136;53.172;8.256;2022-08-19T12:31:04;28.10;99.90
16064;DHT22;8136;53.172;8.256;2022-08-19T12:33:31;28.10;99.40
16064;DHT22;8136;53.172;8.256;2022-08-19T12:36:01;28.20;99.20
16064;DHT22;8136;53.172;8.256;2022-08-19T12:38:30;28.30;99.50
16064;DHT22;8136;53.172;8.256;2022-08-19T12:40:58;28.40;99.90
16064;DHT22;8136;53.172;8.256;2022-08-19T12:43:25;28.60;99.60
16064;DHT22;8136;53.172;8.256;2022-08-19T12:45:52;28.80;98.80
16064;DHT22;8136;53.172;8.256;2022-08-19T12:48:18;28.90;99.80
16064;DHT22;8136;53.172;8.256;2022-08-19T12:50:45;29.00;98.50
16064;DHT22;8136;53.172;8.256;2022-08-19T12:53:12;29.10;98.80
16064;DHT22;8136;53.172;8.256;2022-08-19T12:55:41;29.10;98.50
16064;DHT22;8136;53.172;8.256;2022-08-19T12:58:08;29.20;98.40
16064;DHT22;8136;53.172;8.256;2022-08-19T13:00:35;29.30;98.60
16064;DHT22;8136;53.172;8.256;2022-08-19T13:03:02;29.40;97.50
16064;DHT22;8136;53.172;8.256;2022-08-19T13:05:32;29.60;97.70
16064;DHT22;8136;53.172;8.256;2022-08-19T13:08:00;29.70;97.20
16064;DHT22;8136;53.172;8.256;2022-08-19T13:10:30;29.80;96.10
16064;DHT22;8136;53.172;8.256;2022-08-19T13:13:03;30.00;95.80
16064;DHT22;8136;53.172;8.256;2022-08-19T13:15:34;30.20;96.50
16064;DHT22;8136;53.172;8.256;2022-08-19T13:18:01;30.60;96.40
16064;DHT22;8136;53.172;8.256;2022-08-19T13:20:28;31.20;96.10
16064;DHT22;8136;53.172;8.256;2022-08-19T13:22:55;31.80;94.60
16064;DHT22;8136;53.172;8.256;2022-08-19T13:25:23;32.20;94.20
16064;DHT22;8136;53.172;8.256;2022-08-19T13:27:51;32.70;93.80
16064;DHT22;8136;53.172;8.256;2022-08-19T13:30:19;33.00;92.60
16064;DHT22;8136;53.172;8.256;2022-08-19T13:33:05;33.10;92.90
16064;DHT22;8136;53.172;8.256;2022-08-19T13:35:42;33.60;92.40
16064;DHT22;8136;53.172;8.256;2022-08-19T13:38:10;34.30;90.70
16064;DHT22;8136;53.172;8.256;2022-08-19T13:40:37;34.50;90.30
16064;DHT22;8136;53.172;8.256;2022-08-19T13:43:04;34.60;90.00
16064;DHT22;8136;53.172;8.256;2022-08-19T13:45:33;34.40;90.60
16064;DHT22;8136;53.172;8.256;2022-08-19T13:48:01;34.50;89.90
16064;DHT22;8136;53.172;8.256;2022-08-19T13:50:32;34.30;88.80
16064;DHT22;8136;53.172;8.256;2022-08-19T13:53:00;34.30;86.50
16064;DHT22;8136;53.172;8.256;2022-08-19T13:55:27;34.40;84.90
16064;DHT22;8136;53.172;8.256;2022-08-19T13:57:56;34.70;86.90
16064;DHT22;8136;53.172;8.256;2022-08-19T14:00:24;35.30;83.50
16064;DHT22;8136;53.172;8.256;2022-08-19T14:02:55;35.50;82.90
16064;DHT22;8136;53.172;8.256;2022-08-19T14:05:22;35.90;84.10
16064;DHT22;8136;53.172;8.256;2022-08-19T14:07:50;36.20;80.50
16064;DHT22;8136;53.172;8.256;2022-08-19T14:10:17;35.90;81.00
16064;DHT22;8136;53.172;8.256;2022-08-19T14:12:44;35.30;80.80
16064;DHT22;8136;53.172;8.256;2022-08-19T14:15:12;35.20;80.60
16064;DHT22;8136;53.172;8.256;2022-08-19T14:17:40;35.70;80.60
16064;DHT22;8136;53.172;8.256;2022-08-19T14:20:10;36.60;79.80
16064;DHT22;8136;53.172;8.256;2022-08-19T14:22:39;37.70;77.30
16064;DHT22;8136;53.172;8.256;2022-08-19T14:25:09;38.00;76.50
16064;DHT22;8136;53.172;8.256;2022-08-19T14:27:37;38.30;76.50
16064;DHT22;8136;53.172;8.256;2022-08-19T14:30:06;38.70;73.40
16064;DHT22;8136;53.172;8.256;2022-08-19T14:32:33;39.00;71.80
16064;DHT22;8136;53.172;8.256;2022-08-19T14:35:00;39.10;71.20
16064;DHT22;8136;53.172;8.256;2022-08-19T14:37:28;39.10;71.10
16064;DHT22;8136;53.172;8.256;2022-08-19T14:39:55;39.60;70.10
16064;DHT22;8136;53.172;8.256;2022-08-19T14:42:22;40.20;69.30
16064;DHT22;8136;53.172;8.256;2022-08-19T14:44:49;40.70;69.40
16064;DHT22;8136;53.172;8.256;2022-08-19T14:47:15;41.20;67.90
16064;DHT22;8136;53.172;8.256;2022-08-19T14:49:42;41.70;66.20
16064;DHT22;8136;53.172;8.256;2022-08-19T14:52:09;41.50;65.20
16064;DHT22;8136;53.172;8.256;2022-08-19T14:54:37;41.50;64.40
16064;DHT22;8136;53.172;8.256;2022-08-19T14:57:04;41.70;63.20
16064;DHT22;8136;53.172;8.256;2022-08-19T14:59:31;41.40;63.90
16064;DHT22;8136;53.172;8.256;2022-08-19T15:01:58;41.30;64.00
16064;DHT22;8136;53.172;8.256;2022-08-19T15:04:25;41.20;64.20
16064;DHT22;8136;53.172;8.256;2022-08-19T15:06:51;41.40;64.30
16064;DHT22;8136;53.172;8.256;2022-08-19T15:09:18;42.20;62.40
16064;DHT22;8136;53.172;8.256;2022-08-19T15:11:46;42.50;62.60
16064;DHT22;8136;53.172;8.256;2022-08-19T15:14:15;43.10;63.50
16064;DHT22;8136;53.172;8.256;2022-08-19T15:16:42;43.50;62.70
16064;DHT22;8136;53.172;8.256;2022-08-19T15:19:09;43.70;61.50
16064;DHT22;8136;53.172;8.256;2022-08-19T15:21:37;43.80;62.00
16064;DHT22;8136;53.172;8.256;2022-08-19T15:24:04;44.00;62.20
16064;DHT22;8136;53.172;8.256;2022-08-19T15:26:31;44.30;61.20
16064;DHT22;8136;53.172;8.256;2022-08-19T15:28:59;44.30;60.40
16064;DHT22;8136;53.172;8.256;2022-08-19T15:31:27;43.80;60.70
16064;DHT22;8136;53.172;8.256;2022-08-19T15:33:54;43.30;61.20
16064;DHT22;8136;53.172;8.256;2022-08-19T15:36:23;43.40;60.40
16064;DHT22;8136;53.172;8.256;2022-08-19T15:38:49;43.40;59.80
16064;DHT22;8136;53.172;8.256;2022-08-19T15:41:19;43.10;60.20
16064;DHT22;8136;53.172;8.256;2022-08-19T15:43:51;41.90;60.90
16064;DHT22;8136;53.172;8.256;2022-08-19T15:46:23;40.10;62.70
16064;DHT22;8136;53.172;8.256;2022-08-19T15:48:52;38.80;64.20
16064;DHT22;8136;53.172;8.256;2022-08-19T15:51:20;38.50;66.10
16064;DHT22;8136;53.172;8.256;2022-08-19T15:53:47;37.80;66.10
16064;DHT22;8136;53.172;8.256;2022-08-19T15:56:15;36.90;67.20
16064;DHT22;8136;53.172;8.256;2022-08-19T15:58:42;35.80;70.30